sensor_id;sensor_type;location;lat;lon;timestamp;temperature;humidity
43528;DHT22;52359;42.658;23.320;2023-05-10T08:11:01;8.70;99.90
43528;DHT22;52359;42.658;23.320;2023-05-10T08:13:27;8.70;99.90
43528;DHT22;52359;42.658;23.320;2023-05-10T08:15:53;8.70;99.90
43528;DHT22;52359;42.658;23.320;2023-05-10T08:18:19;8.80;99.90
43528;DHT22;52359;42.658;23.320;2023-05-10T08:20:45;8.80;99.90
43528;DHT22;52359;42.658;23.320;2023-05-10T08:23:12;8.80;99.90
43528;DHT22;52359;42.658;23.320;2023-05-10T08:25:38;8.80;99.90
43528;DHT22;52359;42.658;23.320;2023-05-10T09:41:59;9.10;99.90
43528;DHT22;52359;42.658;23.320;2023-05-10T09:59:18;9.30;99.90
43528;DHT22;52359;42.658;23.320;2023-05-10T10:41:30;9.70;99.90
43528;DHT22;52359;42.658;23.320;2023-05-10T10:47:07;9.70;99.90
43528;DHT22;52359;42.658;23.320;2023-05-10T10:54:52;9.90;99.90
43528;DHT22;52359;42.658;23.320;2023-05-10T10:57:22;9.80;99.90
43528;DHT22;52359;42.658;23.320;2023-05-10T10:59:48;9.80;99.90
43528;DHT22;52359;42.658;23.320;2023-05-10T11:02:33;9.80;99.90
43528;DHT22;52359;42.658;23.320;2023-05-10T11:05:00;9.80;99.90
43528;DHT22;52359;42.658;23.320;2023-05-10T11:07:53;9.80;99.90
43528;DHT22;52359;42.658;23.320;2023-05-10T11:15:37;10.00;99.90
43528;DHT22;52359;42.658;23.320;2023-05-10T11:18:24;10.10;99.90
43528;DHT22;52359;42.658;23.320;2023-05-10T11:20:51;10.10;99.90
43528;DHT22;52359;42.658;23.320;2023-05-10T11:23:17;10.20;99.90
43528;DHT22;52359;42.658;23.320;2023-05-10T11:25:44;10.30;99.90
43528;DHT22;52359;42.658;23.320;2023-05-10T11:28:11;10.20;99.90
43528;DHT22;52359;42.658;23.320;2023-05-10T11:30:41;10.20;99.90
43528;DHT22;52359;42.658;23.320;2023-05-10T11:33:08;10.20;99.90
43528;DHT22;52359;42.658;23.320;2023-05-10T11:35:38;10.40;99.90
43528;DHT22;52359;42.658;23.320;2023-05-10T11:38:08;10.40;99.90
43528;DHT22;52359;42.658;23.320;2023-05-10T12:05:05;10.50;99.90
43528;DHT22;52359;42.658;23.320;2023-05-10T12:07:31;10.40;99.90
43528;DHT22;52359;42.658;23.320;2023-05-10T12:12:38;10.40;99.90
43528;DHT22;52359;42.658;23.320;2023-05-10T12:15:05;10.50;99.90
43528;DHT22;52359;42.658;23.320;2023-05-10T12:17:37;10.50;99.90
43528;DHT22;52359;42.658;23.320;2023-05-10T12:20:21;10.40;99.90
43528;DHT22;52359;42.658;23.320;2023-05-10T12:27:51;10.40;99.90
43528;DHT22;52359;42.658;23.320;2023-05-10T12:30:25;10.40;99.90
43528;DHT22;52359;42.658;23.320;2023-05-10T12:32:52;10.50;99.90
43528;DHT22;52359;42.658;23.320;2023-05-10T12:35:20;10.40;99.90
43528;DHT22;52359;42.658;23.320;2023-05-10T12:37:47;10.40;99.90
43528;DHT22;52359;42.658;23.320;2023-05-10T12:40:13;10.30;99.90
43528;DHT22;52359;42.658;23.320;2023-05-10T12:42:39;10.30;99.90
43528;DHT22;52359;42.658;23.320;2023-05-10T12:45:06;10.40;99.90
43528;DHT22;52359;42.658;23.320;2023-05-10T12:47:33;10.40;99.90
43528;DHT22;52359;42.658;23.320;2023-05-10T15:13:54;10.80;99.90
43528;DHT22;52359;42.658;23.320;2023-05-10T15:16:20;10.80;99.90
43528;DHT22;52359;42.658;23.320;2023-05-10T15:18:46;10.70;99.90
43528;DHT22;52359;42.658;23.320;2023-05-10T15:21:11;10.70;99.90
43528;DHT22;52359;42.658;23.320;2023-05-10T15:23:37;10.60;99.90
43528;DHT22;52359;42.658;23.320;2023-05-10T15:28:29;10.60;99.90
43528;DHT22;52359;42.658;23.320;2023-05-10T15:30:55;10.60;99.90
43528;DHT22;52359;42.658;23.320;2023-05-10T15:33:21;10.70;99.90
43528;DHT22;52359;42.658;23.320;2023-05-10T15:38:13;10.60;99.90
43528;DHT22;52359;42.658;23.320;2023-05-10T15:40:39;10.60;99.90
43528;DHT22;52359;42.658;23.320;2023-05-10T15:43:04;10.60;99.90
43528;DHT22;52359;42.658;23.320;2023-05-10T15:55:36;10.80;99.90
43528;DHT22;52359;42.658;23.320;2023-05-10T15:58:02;10.70;99.90
43528;DHT22;52359;42.658;23.320;2023-05-10T16:00:28;10.70;99.90
43528;DHT22;52359;42.658;23.320;2023-05-10T16:02:54;10.60;99.90
43528;DHT22;52359;42.658;23.320;2023-05-10T16:05:19;10.70;99.90
43528;DHT22;52359;42.658;23.320;2023-05-10T16:07:45;10.60;99.90
43528;DHT22;52359;42.658;23.320;2023-05-10T16:10:11;10.60;99.90
43528;DHT22;52359;42.658;23.320;2023-05-10T16:12:37;10.60;99.90
43528;DHT22;52359;42.658;23.320;2023-05-10T16:15:04;10.60;99.90
43528;DHT22;52359;42.658;23.320;2023-05-10T16:17:32;10.70;99.90
43528;DHT22;52359;42.658;23.320;2023-05-10T16:19:58;10.60;99.90
43528;DHT22;52359;42.658;23.320;2023-05-10T16:22:25;10.60;99.90
43528;DHT22;52359;42.658;23.320;2023-05-10T16:24:54;10.60;99.90
43528;DHT22;52359;42.658;23.320;2023-05-10T16:27:19;10.60;99.90
43528;DHT22;52359;42.658;23.320;2023-05-10T16:29:46;10.50;99.90
43528;DHT22;52359;42.658;23.320;2023-05-10T16:39:30;10.50;99.90
43528;DHT22;52359;42.658;23.320;2023-05-10T16:41:56;10.50;99.90
43528;DHT22;52359;42.658;23.320;2023-05-10T16:44:21;10.60;99.90
43528;DHT22;52359;42.658;23.320;2023-05-10T16:46:47;10.50;99.90
43528;DHT22;52359;42.658;23.320;2023-05-10T17:06:16;10.60;99.90
43528;DHT22;52359;42.658;23.320;2023-05-10T17:08:42;10.50;99.90
43528;DHT22;52359;42.658;23.320;2023-05-10T17:18:29;10.60;99.90
43528;DHT22;52359;42.658;23.320;2023-05-10T17:20:55;10.50;99.90
